Time;durP1;ratioP1;P1;durP2;ratioP2;P2;SDS_P1;SDS_P2;PMS_P1;PMS_P2;Temp;Humidity;BMP_temperature;BMP_pressure;BME280_temperature;BME280_humidity;BME280_pressure;Samples;Min_cycle;Max_cycle;Signal;HPM_P1;HPM_P2
2022/11/28 00:00:19;;;;;;;9.75;5.53;;;7.70;99.90;;;;;;5091401;28;20016;-71
2022/11/28 00:02:45;;;;;;;8.77;5.00;;;7.80;99.90;;;;;;5090959;28;20032;-71
2022/11/28 00:05:11;;;;;;;9.68;4.90;;;7.80;99.90;;;;;;5091712;28;20495;-71
2022/11/28 00:07:36;;;;;;;9.25;5.70;;;7.80;99.90;;;;;;5090964;28;20031;-71
2022/11/28 00:10:04;;;;;;;9.40;5.15;;;7.80;99.90;;;;;;5072963;28;20127;-71
2022/11/28 00:12:29;;;;;;;13.07;5.07;;;7.80;99.90;;;;;;5073265;28;20027;-70
2022/11/28 00:14:55;;;;;;;10.05;4.90;;;7.90;99.90;;;;;;5091432;28;20028;-71
2022/11/28 00:17:21;;;;;;;9.73;5.55;;;7.80;99.90;;;;;;5091008;28;20400;-71
2022/11/28 00:19:46;;;;;;;8.77;5.32;;;7.90;99.90;;;;;;5090683;28;20395;-70
2022/11/28 00:22:12;;;;;;;10.40;5.88;;;7.80;99.90;;;;;;5073055;28;20123;-71
2022/11/28 00:24:39;;;;;;;8.75;5.30;;;7.90;99.90;;;;;;5090651;28;20024;-71
2022/11/28 00:27:04;;;;;;;9.55;5.53;;;7.90;99.90;;;;;;5073277;28;20020;-71
2022/11/28 00:29:30;;;;;;;14.80;6.90;;;7.90;99.90;;;;;;5090485;28;20455;-71
2022/11/28 00:31:55;;;;;;;9.65;4.93;;;7.90;99.90;;;;;;5091448;28;20032;-71
2022/11/28 00:34:21;;;;;;;10.48;5.88;;;7.90;99.90;;;;;;5091361;28;20467;-71
2022/11/28 00:36:47;;;;;;;9.07;5.32;;;7.90;99.90;;;;;;5090374;28;20059;-70
2022/11/28 00:39:13;;;;;;;12.07;5.40;;;7.90;99.90;;;;;;5091217;28;20020;-70
2022/11/28 00:41:39;;;;;;;11.07;6.35;;;7.90;99.90;;;;;;5090869;28;20097;-70
2022/11/28 00:44:05;;;;;;;11.70;6.13;;;7.90;99.90;;;;;;5090611;28;20475;-71
2022/11/28 00:46:30;;;;;;;11.73;5.85;;;7.90;99.90;;;;;;5091215;28;20028;-70
2022/11/28 00:48:57;;;;;;;11.88;5.50;;;7.90;99.90;;;;;;5091146;28;20032;-71
2022/11/28 00:51:27;;;;;;;10.25;4.72;;;7.90;99.90;;;;;;5090403;28;20099;-70
2022/11/28 00:53:56;;;;;;;9.40;5.25;;;7.90;99.90;;;;;;5091110;28;20032;-71
2022/11/28 00:56:25;;;;;;;10.95;5.30;;;7.90;99.90;;;;;;5091378;28;20384;-71
2022/11/28 00:58:51;;;;;;;9.77;5.47;;;8.00;99.90;;;;;;5091043;28;20031;-71
2022/11/28 01:01:29;;;;;;;9.07;5.28;;;8.00;99.90;;;;;;5091321;28;20100;-71
2022/11/28 01:03:58;;;;;;;9.75;6.47;;;8.00;99.90;;;;;;5091080;28;20035;-71
2022/11/28 01:06:35;;;;;;;10.38;6.38;;;8.00;99.90;;;;;;5090734;28;20061;-70
2022/11/28 01:09:04;;;;;;;12.73;6.30;;;8.00;99.90;;;;;;5073114;28;20046;-71
2022/11/28 01:11:30;;;;;;;10.77;6.32;;;8.00;99.90;;;;;;5093863;28;20494;-71
2022/11/28 01:13:58;;;;;;;8.80;5.75;;;8.00;99.90;;;;;;5094446;28;20028;-71
2022/11/28 01:16:25;;;;;;;11.38;5.53;;;8.00;99.90;;;;;;5094154;28;20040;-70
2022/11/28 01:18:51;;;;;;;10.48;6.40;;;8.00;99.90;;;;;;5109395;28;20043;-71
2022/11/28 01:21:17;;;;;;;12.43;6.78;;;8.00;99.90;;;;;;5094515;28;20020;-71
2022/11/28 01:23:43;;;;;;;12.82;6.32;;;8.00;99.90;;;;;;5075443;28;20126;-70
2022/11/28 01:26:10;;;;;;;14.80;6.43;;;8.00;99.90;;;;;;5094243;28;20566;-70
2022/11/28 01:28:36;;;;;;;10.20;6.10;;;8.10;99.90;;;;;;5075623;28;20043;-69
2022/11/28 01:31:06;;;;;;;10.15;5.35;;;8.10;99.90;;;;;;5109123;28;20016;-71
2022/11/28 01:33:32;;;;;;;12.65;5.65;;;8.10;99.90;;;;;;5093661;28;20028;-70
2022/11/28 01:35:58;;;;;;;11.20;5.97;;;8.10;99.90;;;;;;5094438;28;20523;-71
2022/11/28 01:38:24;;;;;;;10.25;6.00;;;8.10;99.90;;;;;;5094271;28;20036;-70
2022/11/28 01:40:51;;;;;;;10.80;5.53;;;8.10;99.90;;;;;;5093753;28;20064;-69
2022/11/28 01:43:17;;;;;;;10.23;5.70;;;8.10;99.90;;;;;;5089905;28;20464;-71
2022/11/28 01:45:43;;;;;;;10.55;5.57;;;8.10;99.90;;;;;;5073381;28;20027;-71
2022/11/28 01:48:14;;;;;;;13.25;6.05;;;8.10;99.90;;;;;;5073672;28;20103;-71
2022/11/28 01:50:42;;;;;;;11.98;6.13;;;8.10;99.90;;;;;;5073790;28;20514;-71
2022/11/28 01:53:09;;;;;;;12.73;5.57;;;8.20;99.90;;;;;;5073854;28;20033;-72
2022/11/28 01:55:43;;;;;;;11.27;6.07;;;8.20;99.90;;;;;;5055121;28;20472;-71
2022/11/28 01:58:10;;;;;;;11.68;6.22;;;8.20;99.90;;;;;;5073758;28;20468;-71
2022/11/28 02:00:35;;;;;;;9.38;5.22;;;8.20;99.90;;;;;;5072816;28;20025;-71
2022/11/28 02:03:13;;;;;;;11.48;7.25;;;8.20;99.90;;;;;;5055063;28;20485;-71
2022/11/28 02:05:39;;;;;;;14.60;7.28;;;8.20;99.90;;;;;;5073544;28;20025;-69
2022/11/28 02:08:07;;;;;;;12.90;7.32;;;8.20;99.90;;;;;;5072952;28;20131;-71
2022/11/28 02:10:48;;;;;;;14.85;7.32;;;8.20;99.90;;;;;;5073427;28;20025;-71
2022/11/28 02:13:32;;;;;;;11.88;6.97;;;8.20;99.90;;;;;;5088924;28;20050;-70
2022/11/28 02:16:15;;;;;;;13.23;7.50;;;8.20;99.90;;;;;;5088498;28;20101;-71
2022/11/28 02:19:05;;;;;;;9.63;6.30;;;8.20;99.90;;;;;;5072918;28;20075;-71
2022/11/28 02:21:46;;;;;;;11.23;6.05;;;8.20;99.90;;;;;;5087655;28;20048;-71
2022/11/28 02:24:35;;;;;;;10.85;6.10;;;8.20;99.90;;;;;;5072700;28;20024;-71
2022/11/28 02:27:37;;;;;;;11.15;6.40;;;8.20;99.90;;;;;;5088256;28;20025;-71
2022/11/28 02:30:18;;;;;;;12.90;6.57;;;8.20;99.90;;;;;;5072673;28;20381;-71
2022/11/28 02:32:43;;;;;;;12.20;7.50;;;8.20;99.90;;;;;;5072449;28;20040;-70
2022/11/28 02:35:44;;;;;;;15.30;8.10;;;8.20;99.90;;;;;;5088632;28;20081;-70
2022/11/28 02:38:39;;;;;;;15.93;7.63;;;8.20;99.90;;;;;;5071971;28;20530;-69
2022/11/28 02:41:32;;;;;;;12.85;7.80;;;8.20;99.90;;;;;;5072955;28;20471;-69
2022/11/28 02:44:17;;;;;;;14.50;7.80;;;8.10;99.90;;;;;;5049865;28;20038;-68
2022/11/28 02:47:22;;;;;;;14.45;8.52;;;8.10;99.90;;;;;;5072442;28;20512;-69
2022/11/28 02:50:09;;;;;;;15.88;7.45;;;8.10;99.90;;;;;;5072314;28;20071;-70
2022/11/28 02:52:52;;;;;;;12.65;7.20;;;8.10;99.90;;;;;;5072168;28;20029;-70
2022/11/28 02:55:17;;;;;;;12.30;6.95;;;8.10;99.90;;;;;;5072428;28;20081;-69
2022/11/28 02:57:49;;;;;;;12.75;6.90;;;8.10;99.90;;;;;;5071679;28;20024;-70
2022/11/28 03:00:27;;;;;;;13.98;8.35;;;8.20;99.90;;;;;;5072468;28;20425;-70
2022/11/28 03:03:01;;;;;;;14.77;8.23;;;8.20;99.90;;;;;;5088014;28;20075;-70
2022/11/28 03:05:47;;;;;;;13.25;7.50;;;8.10;99.90;;;;;;5071741;28;20388;-70
2022/11/28 03:08:34;;;;;;;14.20;7.45;;;8.20;99.90;;;;;;5072592;28;20075;-70
2022/11/28 03:11:32;;;;;;;11.35;6.80;;;8.20;99.90;;;;;;5072210;28;20080;-70
2022/11/28 03:14:46;;;;;;;13.85;7.53;;;8.20;99.90;;;;;;5087826;28;20025;-70
2022/11/28 03:17:41;;;;;;;16.90;8.55;;;8.20;99.90;;;;;;5070002;28;20516;-70
2022/11/28 03:20:33;;;;;;;13.45;7.75;;;8.20;99.90;;;;;;5071720;28;20032;-70
2022/11/28 03:23:12;;;;;;;12.30;6.70;;;8.10;99.90;;;;;;5069895;28;20101;-70
2022/11/28 03:25:46;;;;;;;14.45;7.00;;;8.20;99.90;;;;;;5071247;28;20024;-70
2022/11/28 03:28:58;;;;;;;9.82;5.82;;;8.20;99.90;;;;;;5087848;28;20119;-70
2022/11/28 03:31:31;;;;;;;12.77;6.78;;;8.20;99.90;;;;;;5069359;28;20556;-70
2022/11/28 03:33:59;;;;;;;10.60;6.18;;;8.20;99.90;;;;;;5070982;28;20495;-70
2022/11/28 03:36:34;;;;;;;12.63;6.93;;;8.20;99.90;;;;;;5071573;28;20012;-70
2022/11/28 03:39:12;;;;;;;15.25;7.95;;;8.20;99.90;;;;;;5071813;28;20488;-71
2022/11/28 03:41:47;;;;;;;13.48;7.30;;;8.20;99.90;;;;;;5071729;28;20082;-71
2022/11/28 03:44:20;;;;;;;14.35;7.75;;;8.20;99.90;;;;;;5072121;28;20036;-70
2022/11/28 03:46:48;;;;;;;13.68;8.27;;;8.20;99.90;;;;;;5071163;28;20028;-70
2022/11/28 03:49:20;;;;;;;15.15;8.23;;;8.20;99.90;;;;;;5071987;28;20017;-70
2022/11/28 03:52:16;;;;;;;12.63;7.47;;;8.20;99.90;;;;;;5071328;28;20029;-70
2022/11/28 03:55:04;;;;;;;11.27;6.75;;;8.20;99.90;;;;;;5065200;28;20051;-71
2022/11/28 03:57:34;;;;;;;17.05;9.63;;;8.20;99.90;;;;;;5071543;28;20468;-70
2022/11/28 04:00:04;;;;;;;16.55;10.52;;;8.20;99.90;;;;;;5087056;28;20017;-70
2022/11/28 04:02:49;;;;;;;17.35;10.23;;;8.10;99.90;;;;;;5070872;28;20044;-70
2022/11/28 04:05:40;;;;;;;18.30;9.55;;;8.10;99.90;;;;;;5071736;28;20025;-70
2022/11/28 04:08:21;;;;;;;14.73;8.40;;;8.10;99.90;;;;;;5071214;28;20377;-70
2022/11/28 04:11:06;;;;;;;17.55;10.52;;;8.10;99.90;;;;;;5071191;28;20096;-70
2022/11/28 04:13:37;;;;;;;17.77;10.98;;;8.10;99.90;;;;;;5070936;28;20036;-71
2022/11/28 04:16:17;;;;;;;17.02;9.68;;;8.10;99.90;;;;;;5053175;28;20720;-70
2022/11/28 04:19:05;;;;;;;16.67;9.93;;;8.10;99.90;;;;;;5071191;28;20043;-70
2022/11/28 04:21:36;;;;;;;15.75;8.55;;;8.10;99.90;;;;;;5070709;28;20025;-71
2022/11/28 04:24:10;;;;;;;16.42;9.57;;;8.10;99.90;;;;;;5071200;28;20029;-70
2022/11/28 04:26:41;;;;;;;16.75;8.70;;;8.10;99.90;;;;;;5053055;28;20032;-70
2022/11/28 04:29:09;;;;;;;12.38;7.45;;;8.10;99.90;;;;;;5071233;28;20020;-70
2022/11/28 04:31:38;;;;;;;13.77;8.27;;;8.10;99.90;;;;;;5053042;28;20033;-69
2022/11/28 04:34:08;;;;;;;16.88;10.00;;;8.10;99.90;;;;;;5070969;28;20089;-70
2022/11/28 04:36:37;;;;;;;19.27;11.30;;;8.10;99.90;;;;;;5070777;28;20473;-70
2022/11/28 04:39:11;;;;;;;24.02;12.00;;;8.10;99.90;;;;;;5071250;28;20761;-71
2022/11/28 04:41:44;;;;;;;21.63;10.70;;;8.10;99.90;;;;;;5070470;28;20055;-70
2022/11/28 04:44:33;;;;;;;21.02;11.70;;;8.10;99.90;;;;;;5072330;28;20408;-70
2022/11/28 04:46:58;;;;;;;22.63;11.95;;;8.10;99.90;;;;;;5068763;28;20431;-71
2022/11/28 04:49:26;;;;;;;17.40;10.68;;;8.10;99.90;;;;;;5074668;28;20065;-69
2022/11/28 04:52:00;;;;;;;20.25;10.80;;;8.10;99.90;;;;;;5056659;28;20031;-70
2022/11/28 04:54:56;;;;;;;17.92;9.55;;;8.10;99.90;;;;;;5090046;28;20494;-69
2022/11/28 04:57:28;;;;;;;19.70;9.75;;;8.10;99.90;;;;;;5094561;28;20472;-71
2022/11/28 04:59:55;;;;;;;16.42;9.38;;;8.10;99.90;;;;;;5095096;28;20076;-69
2022/11/28 05:02:22;;;;;;;16.75;9.70;;;8.10;99.90;;;;;;5076856;28;20127;-71
2022/11/28 05:04:51;;;;;;;17.85;9.95;;;8.10;99.90;;;;;;5094478;28;20099;-70
2022/11/28 05:07:17;;;;;;;16.85;9.80;;;8.10;99.90;;;;;;5076891;28;20020;-70
2022/11/28 05:09:42;;;;;;;18.42;9.88;;;8.20;99.90;;;;;;5094368;28;20077;-69
2022/11/28 05:12:08;;;;;;;18.10;8.75;;;8.20;99.90;;;;;;5076291;28;20475;-70
2022/11/28 05:14:34;;;;;;;16.40;8.73;;;8.10;99.90;;;;;;5110045;28;20169;-69
2022/11/28 05:16:59;;;;;;;14.85;9.15;;;8.10;99.90;;;;;;5094476;28;20496;-70
2022/11/28 05:19:25;;;;;;;17.52;9.60;;;8.10;99.90;;;;;;5094030;28;20028;-70
2022/11/28 05:21:52;;;;;;;14.73;8.48;;;8.20;99.90;;;;;;5095908;28;20039;-71
2022/11/28 05:24:18;;;;;;;14.95;9.60;;;8.10;99.90;;;;;;5095681;28;20414;-71
2022/11/28 05:26:43;;;;;;;17.95;8.75;;;8.10;99.90;;;;;;5093573;28;20472;-71
2022/11/28 05:29:09;;;;;;;14.57;9.00;;;8.20;99.90;;;;;;5091478;28;20476;-71
2022/11/28 05:31:36;;;;;;;16.10;9.27;;;8.20;99.90;;;;;;5093771;28;20475;-72
2022/11/28 05:34:02;;;;;;;16.38;9.27;;;8.20;99.90;;;;;;5093934;28;20020;-71
2022/11/28 05:36:27;;;;;;;14.10;8.50;;;8.20;99.90;;;;;;5093805;28;20107;-72
2022/11/28 05:38:53;;;;;;;17.30;9.27;;;8.10;99.90;;;;;;5075212;28;20028;-71
2022/11/28 05:41:24;;;;;;;16.80;9.00;;;8.20;99.90;;;;;;5093364;28;20472;-71
2022/11/28 05:43:50;;;;;;;;;;;8.20;99.90;;;;;;5074627;28;20020;-72
2022/11/28 05:46:16;;;;;;;13.20;8.30;;;8.20;99.90;;;;;;5075089;28;19911;-71
2022/11/28 05:48:42;;;;;;;20.17;8.70;;;8.20;99.90;;;;;;5093895;28;20024;-71
2022/11/28 05:51:08;;;;;;;16.52;10.20;;;8.20;99.90;;;;;;5094112;28;20035;-71
2022/11/28 05:53:34;;;;;;;18.92;9.68;;;8.20;99.90;;;;;;5093496;28;20599;-70
2022/11/28 05:56:08;;;;;;;18.17;10.05;;;8.20;99.90;;;;;;5075283;28;20472;-71
2022/11/28 05:58:35;;;;;;;14.77;8.70;;;8.20;99.90;;;;;;5093626;28;20028;-71
2022/11/28 06:01:12;;;;;;;17.75;9.55;;;8.20;99.90;;;;;;5093477;28;20069;-71
2022/11/28 06:03:38;;;;;;;17.70;9.80;;;8.20;99.90;;;;;;5109406;28;20115;-71
2022/11/28 06:06:08;;;;;;;15.50;9.43;;;8.20;99.90;;;;;;5093482;28;20457;-71
2022/11/28 06:08:34;;;;;;;18.55;9.40;;;8.20;99.90;;;;;;5074918;28;20021;-71
2022/11/28 06:10:59;;;;;;;14.77;9.32;;;8.20;99.90;;;;;;5093667;28;20039;-71
2022/11/28 06:13:25;;;;;;;15.63;8.30;;;8.20;99.90;;;;;;5075178;28;20072;-71
2022/11/28 06:15:50;;;;;;;12.38;7.50;;;8.20;99.90;;;;;;5075029;28;20096;-70
2022/11/28 06:18:16;;;;;;;14.73;8.40;;;8.20;99.90;;;;;;5093667;28;20484;-72
2022/11/28 06:20:41;;;;;;;13.82;8.85;;;8.20;99.90;;;;;;5092891;28;20396;-71
2022/11/28 06:23:07;;;;;;;18.60;9.15;;;8.20;99.90;;;;;;5093124;28;20043;-70
2022/11/28 06:25:33;;;;;;;16.52;8.70;;;8.30;99.90;;;;;;5075049;28;20053;-68
2022/11/28 06:27:58;;;;;;;15.18;8.57;;;8.20;99.90;;;;;;5093622;28;20024;-70
2022/11/28 06:30:24;;;;;;;14.60;8.38;;;8.20;99.90;;;;;;5074621;28;20016;-71
2022/11/28 06:32:49;;;;;;;15.45;9.65;;;8.30;99.90;;;;;;5074913;28;20059;-71
2022/11/28 06:35:15;;;;;;;17.42;9.45;;;8.30;99.90;;;;;;5093141;28;20024;-71
2022/11/28 06:37:40;;;;;;;16.52;9.45;;;8.20;99.90;;;;;;5093230;28;20054;-71
2022/11/28 06:40:08;;;;;;;19.48;11.82;;;8.20;99.90;;;;;;5092833;28;20032;-71
2022/11/28 06:42:35;;;;;;;18.10;11.07;;;8.20;99.90;;;;;;5073961;28;20035;-71
2022/11/28 06:45:02;;;;;;;16.85;9.93;;;8.20;99.90;;;;;;5092919;28;20035;-71
2022/11/28 06:47:27;;;;;;;19.23;9.50;;;8.20;99.90;;;;;;5092721;28;20066;-71
2022/11/28 06:49:53;;;;;;;21.23;11.15;;;8.20;99.90;;;;;;5092811;28;20044;-72
2022/11/28 06:52:19;;;;;;;21.38;11.70;;;8.20;99.90;;;;;;5092930;28;20054;-72
2022/11/28 06:54:44;;;;;;;19.08;11.02;;;8.30;99.90;;;;;;5092564;28;20424;-71
2022/11/28 06:57:10;;;;;;;22.40;11.07;;;8.30;99.90;;;;;;5092469;28;20031;-72
2022/11/28 06:59:35;;;;;;;17.88;10.70;;;8.20;99.90;;;;;;5092666;28;20024;-72
2022/11/28 07:02:02;;;;;;;19.10;10.40;;;8.30;99.90;;;;;;5074254;28;20168;-72
2022/11/28 07:04:28;;;;;;;17.75;10.85;;;8.30;99.90;;;;;;5092071;28;20049;-72
2022/11/28 07:06:53;;;;;;;19.27;11.80;;;8.30;99.90;;;;;;5092139;28;20036;-72
2022/11/28 07:09:19;;;;;;;20.52;11.20;;;8.30;99.90;;;;;;5092101;28;20590;-72
2022/11/28 07:11:45;;;;;;;19.58;11.27;;;8.30;99.90;;;;;;5073966;28;20161;-72
2022/11/28 07:14:10;;;;;;;22.25;11.93;;;8.30;99.90;;;;;;5092663;28;20016;-72
2022/11/28 07:16:36;;;;;;;18.38;10.00;;;8.30;99.90;;;;;;5091559;28;20080;-72
2022/11/28 07:19:03;;;;;;;19.02;10.88;;;8.30;99.90;;;;;;5092110;28;20105;-72
2022/11/28 07:21:29;;;;;;;24.17;13.00;;;8.30;99.90;;;;;;5093130;28;20039;-72
2022/11/28 07:23:54;;;;;;;19.95;12.25;;;8.30;99.90;;;;;;5075173;28;20020;-72
2022/11/28 07:26:21;;;;;;;17.65;10.57;;;8.30;99.90;;;;;;5093348;28;20375;-72
2022/11/28 07:28:48;;;;;;;20.02;11.98;;;8.30;99.90;;;;;;5092852;28;20028;-72
2022/11/28 07:31:19;;;;;;;18.52;11.00;;;8.30;99.90;;;;;;5093577;28;20036;-72
2022/11/28 07:33:47;;;;;;;21.65;11.80;;;8.30;99.90;;;;;;5092938;28;20020;-72
2022/11/28 07:36:16;;;;;;;20.00;11.75;;;8.40;99.90;;;;;;5075202;28;20134;-72
2022/11/28 07:38:42;;;;;;;19.05;11.00;;;8.40;99.90;;;;;;5074274;28;20564;-71
2022/11/28 07:41:12;;;;;;;19.48;11.27;;;8.40;99.90;;;;;;5075141;28;20095;-72
2022/11/28 07:43:42;;;;;;;22.58;12.30;;;8.40;99.90;;;;;;5092614;28;20039;-72
2022/11/28 07:46:12;;;;;;;19.40;10.95;;;8.40;99.90;;;;;;5092587;28;20112;-71
2022/11/28 07:48:38;;;;;;;22.35;11.20;;;8.40;99.90;;;;;;5092895;28;20021;-72
2022/11/28 07:51:06;;;;;;;20.92;12.07;;;8.40;99.90;;;;;;5092886;28;20027;-72
2022/11/28 07:53:31;;;;;;;25.00;13.40;;;8.40;99.90;;;;;;5073795;28;20044;-72
2022/11/28 07:56:02;;;;;;;25.05;13.40;;;8.40;99.90;;;;;;5092931;28;20036;-72
2022/11/28 07:58:28;;;;;;;30.25;12.88;;;8.40;99.90;;;;;;5092336;28;20022;-72
2022/11/28 08:00:53;;;;;;;23.42;13.52;;;8.40;99.90;;;;;;5092357;28;20115;-72
2022/11/28 08:03:19;;;;;;;22.77;13.27;;;8.40;99.90;;;;;;5093051;28;20328;-72
2022/11/28 08:05:48;;;;;;;27.02;13.32;;;8.40;99.90;;;;;;5092257;28;20032;-72
2022/11/28 08:08:16;;;;;;;21.67;12.15;;;8.50;99.90;;;;;;5074536;28;20113;-72
2022/11/28 08:10:42;;;;;;;23.20;13.63;;;8.40;99.90;;;;;;5074082;28;20024;-72
2022/11/28 08:13:07;;;;;;;20.77;11.50;;;8.50;99.90;;;;;;5074150;28;20379;-72
2022/11/28 08:15:36;;;;;;;23.25;12.40;;;8.50;99.90;;;;;;5073834;28;20024;-72
2022/11/28 08:18:02;;;;;;;21.55;11.80;;;8.50;99.90;;;;;;5091840;28;20048;-72
2022/11/28 08:20:27;;;;;;;17.55;10.45;;;8.50;99.90;;;;;;5092164;28;20016;-72
2022/11/28 08:22:53;;;;;;;20.20;11.25;;;8.50;99.90;;;;;;5092055;28;20028;-71
2022/11/28 08:25:18;;;;;;;23.83;13.63;;;8.60;99.90;;;;;;5074393;28;20538;-72
2022/11/28 08:27:44;;;;;;;20.25;11.23;;;8.50;99.90;;;;;;5073821;28;20119;-72
2022/11/28 08:30:10;;;;;;;20.50;10.35;;;8.50;99.90;;;;;;5074589;28;20046;-72
2022/11/28 08:32:35;;;;;;;20.38;9.77;;;8.60;99.90;;;;;;5091718;28;20403;-71
2022/11/28 08:35:01;;;;;;;15.23;9.15;;;8.50;99.90;;;;;;5092163;28;20017;-72
2022/11/28 08:37:27;;;;;;;17.13;9.05;;;8.60;99.90;;;;;;5092251;28;20024;-72
2022/11/28 08:39:53;;;;;;;17.85;9.25;;;8.60;99.90;;;;;;5092201;28;20388;-72
2022/11/28 08:42:18;;;;;;;14.82;8.85;;;8.60;99.90;;;;;;5073665;28;20032;-72
2022/11/28 08:44:44;;;;;;;17.13;9.73;;;8.60;99.90;;;;;;5092145;28;20426;-71
2022/11/28 08:47:09;;;;;;;20.85;11.63;;;8.60;99.90;;;;;;5074325;28;20094;-71
2022/11/28 08:49:36;;;;;;;18.50;10.77;;;8.60;99.90;;;;;;5091902;28;20020;-71
2022/11/28 08:52:03;;;;;;;16.92;10.13;;;8.60;99.90;;;;;;5092172;28;20028;-72
2022/11/28 08:54:28;;;;;;;17.23;9.98;;;8.70;99.90;;;;;;5091597;28;20095;-72
2022/11/28 08:56:54;;;;;;;17.27;10.48;;;8.70;99.90;;;;;;5091885;28;20420;-72
2022/11/28 08:59:20;;;;;;;22.05;10.45;;;8.70;99.90;;;;;;5092410;28;20012;-72
2022/11/28 09:01:45;;;;;;;18.40;10.93;;;8.70;99.90;;;;;;5091951;28;20495;-72
2022/11/28 09:04:11;;;;;;;15.35;9.20;;;8.80;99.90;;;;;;5073660;28;20464;-72
2022/11/28 09:06:40;;;;;;;16.20;9.50;;;8.80;99.90;;;;;;5091921;28;20476;-71
2022/11/28 09:09:05;;;;;;;18.15;10.00;;;8.80;99.90;;;;;;5091731;28;20020;-71
2022/11/28 09:11:31;;;;;;;17.77;9.73;;;8.80;99.90;;;;;;5091471;28;20372;-72
2022/11/28 09:13:58;;;;;;;16.38;9.35;;;8.80;99.90;;;;;;5091746;28;20050;-72
2022/11/28 09:16:24;;;;;;;17.48;10.45;;;8.80;99.90;;;;;;5073394;28;20078;-72
2022/11/28 09:18:50;;;;;;;17.73;11.05;;;8.80;99.90;;;;;;5091526;28;20418;-72
2022/11/28 09:21:15;;;;;;;18.45;11.70;;;8.80;99.90;;;;;;5091885;28;20028;-72
2022/11/28 09:23:43;;;;;;;18.40;11.07;;;8.80;99.90;;;;;;5091653;28;20094;-72
2022/11/28 09:26:15;;;;;;;20.15;11.27;;;8.80;99.90;;;;;;5091387;28;20020;-72
2022/11/28 09:28:40;;;;;;;20.33;11.88;;;8.80;99.90;;;;;;5073351;28;20035;-72
2022/11/28 09:31:07;;;;;;;18.17;10.68;;;8.80;99.90;;;;;;5092713;28;20028;-72
2022/11/28 09:33:33;;;;;;;18.70;11.13;;;8.80;99.90;;;;;;5095001;28;20020;-72
2022/11/28 09:36:02;;;;;;;18.40;10.80;;;8.80;99.90;;;;;;5077238;28;20077;-71
2022/11/28 09:38:28;;;;;;;18.08;11.45;;;8.90;99.90;;;;;;5094509;28;20027;-72
2022/11/28 09:40:53;;;;;;;17.83;11.05;;;8.90;99.90;;;;;;5095442;28;20028;-72
2022/11/28 09:43:33;;;;;;;22.65;11.85;;;8.90;99.90;;;;;;5095067;28;20039;-71
2022/11/28 09:46:03;;;;;;;17.52;10.77;;;8.90;99.90;;;;;;5094837;28;20146;-71
2022/11/28 09:48:44;;;;;;;15.35;9.63;;;8.90;99.90;;;;;;5095163;28;20114;-72
2022/11/28 09:51:30;;;;;;;21.35;11.75;;;8.90;99.90;;;;;;5095123;28;20444;-71
2022/11/28 09:54:24;;;;;;;20.20;11.63;;;8.90;99.90;;;;;;5094654;28;20031;-72
2022/11/28 09:56:51;;;;;;;24.95;13.45;;;8.90;99.90;;;;;;5078757;28;20036;-72
2022/11/28 09:59:24;;;;;;;18.70;10.82;;;8.90;99.90;;;;;;5094386;28;20024;-72
2022/11/28 10:01:59;;;;;;;19.85;11.88;;;8.90;99.90;;;;;;5077002;28;20028;-72
2022/11/28 10:04:40;;;;;;;19.83;11.75;;;8.90;99.90;;;;;;5094240;28;20027;-72
2022/11/28 10:07:25;;;;;;;18.13;11.35;;;9.00;99.90;;;;;;5094368;28;20027;-72
2022/11/28 10:10:15;;;;;;;19.67;11.80;;;9.00;99.90;;;;;;5094933;28;20499;-72
2022/11/28 10:12:59;;;;;;;19.90;10.90;;;9.00;99.90;;;;;;5094509;28;20032;-72
2022/11/28 10:15:42;;;;;;;19.88;10.55;;;9.00;99.90;;;;;;5093868;28;20020;-72
2022/11/28 10:18:33;;;;;;;20.85;11.50;;;9.10;99.90;;;;;;5094336;28;20135;-72
2022/11/28 10:21:07;;;;;;;23.85;13.05;;;9.10;99.90;;;;;;5075964;28;20020;-72
2022/11/28 10:23:39;;;;;;;24.55;13.18;;;9.20;99.90;;;;;;5093866;28;20028;-72
2022/11/28 10:26:11;;;;;;;29.30;15.35;;;9.30;99.90;;;;;;5093924;28;20021;-72
2022/11/28 10:28:41;;;;;;;28.98;16.92;;;9.30;99.90;;;;;;5092956;28;20043;-72
2022/11/28 10:31:25;;;;;;;28.67;14.15;;;9.30;99.90;;;;;;5093935;28;20024;-72
2022/11/28 10:34:08;;;;;;;17.77;10.27;;;9.30;99.90;;;;;;5093932;28;20043;-72
2022/11/28 10:36:51;;;;;;;17.27;9.20;;;9.30;99.90;;;;;;5093424;28;20034;-72
2022/11/28 10:39:16;;;;;;;14.00;8.38;;;9.30;99.90;;;;;;5093780;28;20020;-71
2022/11/28 10:42:10;;;;;;;14.52;8.90;;;9.40;99.90;;;;;;5092566;28;20873;-72
2022/11/28 10:44:57;;;;;;;12.95;8.32;;;9.30;99.90;;;;;;5093703;28;20067;-72
2022/11/28 10:47:54;;;;;;;14.52;8.60;;;9.40;99.90;;;;;;5093739;28;20028;-72
2022/11/28 10:50:43;;;;;;;13.07;8.50;;;9.40;99.90;;;;;;5075548;28;20024;-71
2022/11/28 10:53:44;;;;;;;16.75;9.00;;;9.40;99.90;;;;;;5075798;28;20446;-72
2022/11/28 10:56:30;;;;;;;17.00;10.88;;;9.40;99.90;;;;;;5093212;28;20107;-71
2022/11/28 10:59:04;;;;;;;19.23;11.80;;;9.50;99.90;;;;;;5093730;28;20024;-71
2022/11/28 11:01:39;;;;;;;21.50;11.20;;;9.50;99.90;;;;;;5093428;28;20032;-72
2022/11/28 11:04:12;;;;;;;17.42;10.15;;;9.50;99.90;;;;;;5093464;28;20026;-72
2022/11/28 11:06:38;;;;;;;16.73;10.50;;;9.50;99.90;;;;;;5093054;28;20036;-72
2022/11/28 11:09:04;;;;;;;16.70;10.23;;;9.60;99.90;;;;;;5093501;28;20426;-71
2022/11/28 11:11:39;;;;;;;17.85;10.25;;;9.60;99.90;;;;;;5092608;28;20420;-71
2022/11/28 11:14:10;;;;;;;15.95;10.05;;;9.60;99.90;;;;;;5092753;28;20489;-71
2022/11/28 11:16:51;;;;;;;16.63;9.75;;;9.60;99.90;;;;;;5074203;28;20093;-71
2022/11/28 11:19:24;;;;;;;15.85;9.30;;;9.70;99.90;;;;;;5093107;28;20031;-71
2022/11/28 11:22:20;;;;;;;16.02;9.60;;;9.70;99.90;;;;;;5093017;28;20040;-71
2022/11/28 11:25:15;;;;;;;16.70;9.38;;;9.70;99.90;;;;;;5092211;28;20406;-71
2022/11/28 11:27:52;;;;;;;19.40;10.50;;;9.80;99.90;;;;;;5092518;28;20028;-72
2022/11/28 11:30:41;;;;;;;16.35;9.52;;;9.90;99.90;;;;;;5074530;28;20020;-71
2022/11/28 11:33:15;;;;;;;16.67;9.45;;;9.90;99.90;;;;;;5108568;28;20024;-72
2022/11/28 11:35:46;;;;;;;15.60;8.85;;;9.90;99.90;;;;;;5092210;28;20047;-71
2022/11/28 11:38:20;;;;;;;16.45;10.30;;;9.90;99.90;;;;;;5092554;28;20107;-72
2022/11/28 11:40:46;;;;;;;14.48;8.15;;;9.90;99.90;;;;;;5092133;28;20028;-71
2022/11/28 11:43:30;;;;;;;15.93;9.10;;;9.90;99.90;;;;;;5092486;28;20484;-71
2022/11/28 11:46:15;;;;;;;15.70;9.38;;;10.00;99.90;;;;;;5091891;28;20016;-72
2022/11/28 11:48:46;;;;;;;15.65;8.73;;;10.00;99.90;;;;;;5073968;28;20020;-71
2022/11/28 11:51:21;;;;;;;13.23;8.30;;;10.00;99.90;;;;;;5092609;28;20173;-71
2022/11/28 11:53:47;;;;;;;18.35;9.38;;;9.90;99.90;;;;;;5072687;28;20039;-71
2022/11/28 11:56:13;;;;;;;17.73;9.38;;;9.90;99.90;;;;;;5073557;28;20024;-71
2022/11/28 11:58:53;;;;;;;14.95;8.75;;;9.90;99.90;;;;;;5072881;28;20479;-72
2022/11/28 12:01:20;;;;;;;15.18;7.90;;;9.80;99.90;;;;;;5073522;28;20039;-72
2022/11/28 12:04:05;;;;;;;15.30;8.93;;;9.80;99.90;;;;;;5091079;28;20102;-72
2022/11/28 12:06:38;;;;;;;16.30;8.25;;;9.80;99.90;;;;;;5091201;28;20529;-71
2022/11/28 12:09:39;;;;;;;17.70;9.70;;;9.80;99.90;;;;;;5091795;28;20024;-71
2022/11/28 12:12:14;;;;;;;17.15;8.75;;;9.80;99.90;;;;;;5091764;28;20114;-71
2022/11/28 12:14:40;;;;;;;15.90;8.88;;;9.80;99.90;;;;;;5091041;28;20047;-72
2022/11/28 12:17:24;;;;;;;16.02;8.45;;;9.80;99.90;;;;;;5091447;28;20078;-72
2022/11/28 12:20:21;;;;;;;15.75;8.40;;;9.80;99.90;;;;;;5091190;28;20028;-71
2022/11/28 12:23:15;;;;;;;17.90;8.93;;;9.80;99.90;;;;;;5072906;28;20040;-72
2022/11/28 12:25:50;;;;;;;14.88;8.55;;;9.80;99.90;;;;;;5073305;28;20030;-71
2022/11/28 12:28:40;;;;;;;19.20;9.43;;;9.80;99.90;;;;;;5091096;28;20544;-71
2022/11/28 12:31:43;;;;;;;15.70;7.70;;;9.70;99.90;;;;;;5073369;28;20042;-71
2022/11/28 12:34:20;;;;;;;15.10;9.02;;;9.80;99.90;;;;;;5089678;28;20020;-71
2022/11/28 12:36:59;;;;;;;16.85;9.18;;;9.80;99.90;;;;;;5091357;28;20548;-72
2022/11/28 12:39:51;;;;;;;14.50;7.70;;;9.80;99.90;;;;;;5090979;28;20031;-72
2022/11/28 12:42:40;;;;;;;16.27;7.90;;;9.80;99.90;;;;;;5091673;28;20083;-72
2022/11/28 12:45:27;;;;;;;14.73;7.95;;;9.80;99.90;;;;;;5057868;28;20033;-73
2022/11/28 12:48:11;;;;;;;16.58;8.45;;;9.80;99.90;;;;;;5090983;28;20248;-73
2022/11/28 12:50:40;;;;;;;15.82;9.35;;;9.80;99.90;;;;;;5091509;28;20084;-74
2022/11/28 12:53:33;;;;;;;15.40;8.43;;;9.90;99.90;;;;;;5090897;28;20107;-73
2022/11/28 12:56:15;;;;;;;18.83;9.90;;;9.80;99.90;;;;;;5091603;28;20056;-71
2022/11/28 12:58:55;;;;;;;14.63;8.38;;;9.80;99.90;;;;;;5072950;28;20410;-71
2022/11/28 13:01:51;;;;;;;17.23;9.88;;;9.80;99.90;;;;;;5072585;28;20137;-71
2022/11/28 13:04:52;;;;;;;13.30;7.90;;;9.80;99.90;;;;;;5073475;28;20028;-72
2022/11/28 13:07:36;;;;;;;17.80;9.75;;;9.80;99.90;;;;;;5073103;28;20066;-73
2022/11/28 13:10:32;;;;;;;17.50;9.68;;;9.90;99.90;;;;;;5095417;28;20486;-72
2022/11/28 13:13:26;;;;;;;16.10;8.73;;;9.90;99.90;;;;;;5076698;28;20480;-73